Time;durP1;ratioP1;P1;durP2;ratioP2;P2;SDS_P1;SDS_P2;PMS_P1;PMS_P2;Temp;Humidity;BMP_temperature;BMP_pressure;BME280_temperature;BME280_humidity;BME280_pressure;Samples;Min_cycle;Max_cycle;Signal;HPM_P1;HPM_P2
2022/11/07 00:02:22;;;;;;;13.18;6.97;;;10.50;99.90;;;;;;4940003;28;90557;-29
2022/11/07 00:04:48;;;;;;;10.13;7.65;;;10.50;99.90;;;;;;4939851;28;89072;-30
2022/11/07 00:07:13;;;;;;;8.90;6.57;;;10.60;99.90;;;;;;4939503;28;89526;-29
2022/11/07 00:09:39;;;;;;;9.25;7.82;;;10.70;99.90;;;;;;4940793;28;88302;-30
2022/11/07 00:12:05;;;;;;;12.57;7.45;;;10.70;99.90;;;;;;4940088;28;90051;-29
2022/11/07 00:14:31;;;;;;;10.23;7.22;;;10.70;99.90;;;;;;4940236;28;90052;-29
2022/11/07 00:16:56;;;;;;;8.30;6.88;;;10.60;99.90;;;;;;4939872;28;89318;-31
2022/11/07 00:19:22;;;;;;;11.05;7.75;;;10.70;99.90;;;;;;4939699;28;89905;-31
2022/11/07 00:21:48;;;;;;;7.88;6.93;;;10.60;99.90;;;;;;4940061;28;89442;-31
2022/11/07 00:24:18;;;;;;;10.48;7.15;;;10.70;99.90;;;;;;4941185;28;89345;-33
2022/11/07 00:26:45;;;;;;;10.30;6.85;;;10.70;99.90;;;;;;4937853;28;88110;-31
2022/11/07 00:29:16;;;;;;;7.90;6.60;;;10.70;99.90;;;;;;4939596;28;88900;-30
2022/11/07 00:31:42;;;;;;;10.48;6.80;;;10.70;99.90;;;;;;4939028;28;90283;-31
2022/11/07 00:34:08;;;;;;;7.65;6.63;;;10.80;99.90;;;;;;4940149;28;90118;-30
2022/11/07 00:36:34;;;;;;;12.90;6.68;;;10.90;99.90;;;;;;4940015;28;89284;-29
2022/11/07 00:39:00;;;;;;;8.45;6.50;;;10.90;99.90;;;;;;4939460;28;89681;-27
2022/11/07 00:41:25;;;;;;;9.90;6.93;;;11.00;99.90;;;;;;4939093;28;89783;-29
2022/11/07 00:43:52;;;;;;;11.98;6.45;;;11.00;99.90;;;;;;4938488;28;90529;-31
2022/11/07 00:46:18;;;;;;;10.00;6.57;;;11.00;99.90;;;;;;4940071;28;89394;-29
2022/11/07 00:48:44;;;;;;;10.75;6.57;;;11.10;99.90;;;;;;4939700;28;89341;-30
2022/11/07 00:51:11;;;;;;;10.65;7.32;;;11.10;99.90;;;;;;4939309;28;90494;-30
2022/11/07 00:53:37;;;;;;;9.95;6.82;;;11.10;99.90;;;;;;4942616;28;89749;-28
2022/11/07 00:56:04;;;;;;;8.45;7.25;;;11.10;99.90;;;;;;4942914;28;92771;-29
2022/11/07 00:58:30;;;;;;;9.65;6.80;;;11.10;99.90;;;;;;4943312;28;89860;-29
2022/11/07 01:00:57;;;;;;;7.40;6.68;;;11.00;99.90;;;;;;4943243;28;90353;-31
2022/11/07 01:06:12;;;;;;;10.48;6.68;;;11.10;99.90;;;;;;4940847;28;89608;-31
2022/11/07 01:08:37;;;;;;;6.40;5.80;;;11.10;99.90;;;;;;4942702;28;89802;-29
2022/11/07 01:11:05;;;;;;;9.43;6.68;;;11.10;99.90;;;;;;4942405;28;90348;-30
2022/11/07 01:13:31;;;;;;;7.13;6.45;;;11.10;99.90;;;;;;4942975;28;89450;-28
2022/11/07 01:15:57;;;;;;;8.35;7.30;;;11.00;99.90;;;;;;4942237;28;89507;-28
2022/11/07 01:18:22;;;;;;;10.60;7.53;;;11.00;99.90;;;;;;4943151;28;88421;-27
2022/11/07 01:20:48;;;;;;;8.68;6.97;;;11.00;99.90;;;;;;4941977;28;90142;-31
2022/11/07 01:23:14;;;;;;;15.73;6.68;;;11.10;99.90;;;;;;4942573;28;90174;-32
2022/11/07 01:25:40;;;;;;;15.02;6.93;;;11.00;99.90;;;;;;4943059;28;89703;-31
2022/11/07 01:28:07;;;;;;;7.22;5.57;;;11.00;99.90;;;;;;4942200;28;89967;-29
2022/11/07 01:30:37;;;;;;;7.32;5.53;;;11.00;99.90;;;;;;4943330;28;90395;-31
2022/11/07 01:33:03;;;;;;;9.70;6.10;;;11.00;99.90;;;;;;4941943;28;90880;-29
2022/11/07 01:35:28;;;;;;;8.73;6.53;;;11.00;99.90;;;;;;4942246;28;91305;-30
2022/11/07 01:37:54;;;;;;;8.65;6.15;;;11.00;99.90;;;;;;4942207;28;88585;-27
2022/11/07 01:40:19;;;;;;;7.63;6.43;;;11.00;99.90;;;;;;4942618;28;90331;-31
2022/11/07 01:42:45;;;;;;;17.25;6.90;;;11.00;99.90;;;;;;4942083;28;89104;-28
2022/11/07 01:45:20;;;;;;;10.55;6.30;;;11.00;99.90;;;;;;4943002;28;89384;-30
2022/11/07 01:47:47;;;;;;;8.25;6.50;;;11.00;99.90;;;;;;4942028;28;89363;-29
2022/11/07 01:50:13;;;;;;;9.32;5.95;;;11.00;99.90;;;;;;4942361;28;90719;-32
2022/11/07 01:52:42;;;;;;;13.20;5.82;;;11.00;99.90;;;;;;4942512;28;89998;-28
2022/11/07 01:55:20;;;;;;;10.90;6.47;;;11.00;99.90;;;;;;4941247;28;90847;-30
2022/11/07 01:58:06;;;;;;;9.00;6.20;;;11.10;99.90;;;;;;4941412;28;89174;-29
2022/11/07 02:00:34;;;;;;;8.63;6.10;;;11.10;99.90;;;;;;4941277;28;91070;-29
2022/11/07 02:03:09;;;;;;;17.88;6.13;;;11.00;99.90;;;;;;4940843;28;89957;-32
2022/11/07 02:05:45;;;;;;;7.72;6.35;;;11.20;99.90;;;;;;4942674;28;89520;-27
2022/11/07 02:08:13;;;;;;;7.10;5.60;;;11.20;99.90;;;;;;4942086;28;88812;-30
2022/11/07 02:10:40;;;;;;;12.37;5.90;;;11.10;99.90;;;;;;4941507;28;90236;-30
2022/11/07 02:13:06;;;;;;;9.82;6.75;;;11.20;99.90;;;;;;4942716;28;89600;-29
2022/11/07 02:15:34;;;;;;;10.13;5.53;;;11.20;99.90;;;;;;4941507;28;90189;-31
2022/11/07 02:18:01;;;;;;;8.70;5.03;;;11.20;99.90;;;;;;4942241;28;90358;-29
2022/11/07 02:20:26;;;;;;;14.40;5.93;;;11.20;99.90;;;;;;4941945;28;90201;-28
2022/11/07 02:23:02;;;;;;;9.63;5.55;;;11.30;99.90;;;;;;4940922;28;90769;-28
2022/11/07 02:25:28;;;;;;;10.75;6.15;;;11.30;99.90;;;;;;4941645;28;91540;-31
2022/11/07 02:27:57;;;;;;;13.63;6.13;;;11.30;99.90;;;;;;4941646;28;89844;-28
2022/11/07 02:30:26;;;;;;;5.70;4.97;;;11.40;99.90;;;;;;4941481;28;90299;-28
2022/11/07 02:32:52;;;;;;;5.82;4.95;;;11.30;99.90;;;;;;4941423;28;89925;-30
2022/11/07 02:35:41;;;;;;;9.43;5.88;;;11.30;99.90;;;;;;4941404;28;89334;-30
2022/11/07 02:38:20;;;;;;;12.10;5.43;;;11.30;99.90;;;;;;4941608;28;88957;-29
2022/11/07 02:41:06;;;;;;;9.63;5.57;;;11.30;99.90;;;;;;4941142;28;89851;-29
2022/11/07 02:43:34;;;;;;;10.38;5.75;;;11.30;99.90;;;;;;4940840;28;89842;-29
2022/11/07 02:46:04;;;;;;;7.13;5.55;;;11.40;99.90;;;;;;4941281;28;89592;-30
2022/11/07 02:48:32;;;;;;;9.80;5.47;;;11.40;99.90;;;;;;4940834;28;90242;-31
2022/11/07 02:50:58;;;;;;;7.43;5.87;;;11.40;99.90;;;;;;4927821;28;90551;-29
2022/11/07 02:53:24;;;;;;;16.48;5.88;;;11.40;99.90;;;;;;4941830;28;89771;-32
2022/11/07 02:55:49;;;;;;;11.30;6.28;;;11.40;99.90;;;;;;4941084;28;89373;-31
2022/11/07 02:58:15;;;;;;;8.90;5.45;;;11.40;99.90;;;;;;4941400;28;88821;-28
2022/11/07 03:00:41;;;;;;;14.43;6.63;;;11.30;99.90;;;;;;4940566;28;89183;-29
2022/11/07 03:03:06;;;;;;;8.90;6.18;;;11.40;99.90;;;;;;4941515;28;89680;-31
2022/11/07 03:05:32;;;;;;;7.53;5.70;;;11.40;99.90;;;;;;4940609;28;90117;-31
2022/11/07 03:07:58;;;;;;;10.65;6.30;;;11.40;99.90;;;;;;4940679;28;88064;-31
2022/11/07 03:10:23;;;;;;;8.30;6.18;;;11.40;99.90;;;;;;4941053;28;89122;-29
2022/11/07 03:12:49;;;;;;;9.27;5.72;;;11.40;99.90;;;;;;4939794;28;90365;-30
2022/11/07 03:15:14;;;;;;;11.35;6.38;;;11.40;99.90;;;;;;4940062;28;89459;-30
2022/11/07 03:17:40;;;;;;;12.98;5.85;;;11.40;99.90;;;;;;4940472;28;89355;-28
2022/11/07 03:20:07;;;;;;;10.43;5.95;;;11.40;99.90;;;;;;4941558;28;89973;-28
2022/11/07 03:22:32;;;;;;;8.05;5.93;;;11.40;99.90;;;;;;4940778;28;89890;-28
2022/11/07 03:24:58;;;;;;;9.18;5.95;;;11.30;99.90;;;;;;4940599;28;89604;-30
2022/11/07 03:27:23;;;;;;;6.60;5.22;;;11.20;99.90;;;;;;4941146;28;89714;-30
2022/11/07 03:29:49;;;;;;;11.48;5.88;;;11.30;99.90;;;;;;4940232;28;90264;-28
2022/11/07 03:32:15;;;;;;;8.98;6.13;;;11.20;99.90;;;;;;4941314;28;89653;-28
2022/11/07 03:34:40;;;;;;;15.07;5.47;;;11.20;99.90;;;;;;4940338;28;89153;-29
2022/11/07 03:37:06;;;;;;;7.25;5.47;;;11.10;99.90;;;;;;4940469;28;90889;-33
2022/11/07 03:39:31;;;;;;;11.77;5.15;;;11.10;99.90;;;;;;4940433;28;90184;-29
2022/11/07 03:41:57;;;;;;;14.48;6.50;;;11.10;99.90;;;;;;4939604;28;89621;-32
2022/11/07 03:44:23;;;;;;;10.98;5.43;;;11.10;99.90;;;;;;4940753;28;89259;-29
2022/11/07 03:46:48;;;;;;;6.15;5.53;;;11.00;99.90;;;;;;4940989;28;89696;-27
2022/11/07 03:49:14;;;;;;;9.32;6.10;;;11.00;99.90;;;;;;4941159;28;89925;-29
2022/11/07 03:51:39;;;;;;;12.43;5.78;;;11.00;99.90;;;;;;4939964;28;90249;-30
2022/11/07 03:54:05;;;;;;;12.15;6.70;;;11.00;99.90;;;;;;4940507;28;89623;-33
2022/11/07 03:56:30;;;;;;;6.07;5.07;;;11.00;99.90;;;;;;4940691;28;90105;-28
2022/11/07 03:58:56;;;;;;;9.75;5.95;;;11.00;99.90;;;;;;4940211;28;89111;-31
2022/11/07 04:01:22;;;;;;;7.20;5.55;;;11.00;99.90;;;;;;4940695;28;89893;-28
2022/11/07 04:03:47;;;;;;;9.68;6.05;;;11.00;99.90;;;;;;4939267;28;91334;-30
2022/11/07 04:06:13;;;;;;;8.43;6.50;;;10.90;99.90;;;;;;4940400;28;90328;-27
2022/11/07 04:08:39;;;;;;;16.83;5.80;;;10.90;99.90;;;;;;4939575;28;90896;-31
2022/11/07 04:11:04;;;;;;;7.57;5.82;;;11.00;99.90;;;;;;4940157;28;88961;-32
2022/11/07 04:19:01;;;;;;;11.43;5.60;;;11.00;99.90;;;;;;4939901;28;90304;-32
2022/11/07 04:21:27;;;;;;;12.55;6.63;;;11.10;99.90;;;;;;4939618;28;89792;-29
2022/11/07 04:23:52;;;;;;;7.82;5.75;;;11.10;99.90;;;;;;4939934;28;89206;-32
2022/11/07 04:29:02;;;;;;;9.40;5.40;;;11.20;99.90;;;;;;4943082;28;90315;-29
2022/11/07 04:31:28;;;;;;;11.98;5.68;;;11.10;99.90;;;;;;4943640;28;89881;-28
2022/11/07 04:33:53;;;;;;;9.95;5.15;;;11.10;99.90;;;;;;4942689;28;90266;-30
2022/11/07 04:36:19;;;;;;;16.75;6.00;;;11.10;99.90;;;;;;4944375;28;89160;-32
2022/11/07 04:38:45;;;;;;;16.70;7.25;;;11.00;99.90;;;;;;4943229;28;89743;-30
2022/11/07 04:41:22;;;;;;;7.88;5.47;;;11.00;99.90;;;;;;5001557;22;89029;-32
2022/11/07 04:43:48;;;;;;;10.00;5.80;;;11.10;99.90;;;;;;4962983;28;90046;-32
2022/11/07 04:46:15;;;;;;;9.63;6.18;;;11.10;99.90;;;;;;4963820;28;88785;-29
2022/11/07 04:48:41;;;;;;;12.25;6.25;;;11.10;99.90;;;;;;4962305;28;90173;-28
2022/11/07 04:51:13;;;;;;;14.88;6.00;;;11.10;99.90;;;;;;4962244;28;89772;-29
2022/11/07 04:53:38;;;;;;;7.30;6.18;;;11.10;99.90;;;;;;4961923;28;90469;-29
2022/11/07 04:56:04;;;;;;;19.73;6.05;;;11.20;99.90;;;;;;4962974;28;88864;-29
2022/11/07 04:58:30;;;;;;;6.00;5.25;;;11.10;99.90;;;;;;4962292;28;90055;-31
2022/11/07 05:00:55;;;;;;;10.50;5.30;;;11.20;99.90;;;;;;4962828;28;89794;-31
2022/11/07 05:03:21;;;;;;;10.90;5.47;;;11.20;99.90;;;;;;4962663;28;90411;-30
2022/11/07 05:05:46;;;;;;;13.18;6.63;;;11.10;99.90;;;;;;4962418;28;88722;-31
2022/11/07 05:08:12;;;;;;;13.05;6.05;;;11.10;99.90;;;;;;4962284;28;88722;-28
2022/11/07 05:10:38;;;;;;;14.82;7.32;;;11.00;99.90;;;;;;4961976;28;89181;-31
2022/11/07 05:13:03;;;;;;;12.82;6.72;;;11.00;99.90;;;;;;4962266;28;90323;-31
2022/11/07 05:15:29;;;;;;;16.27;6.10;;;11.10;99.90;;;;;;4962250;28;89328;-28
2022/11/07 05:17:54;;;;;;;16.58;6.75;;;11.00;99.90;;;;;;4962053;28;89399;-29
2022/11/07 05:20:29;;;;;;;11.55;6.35;;;11.00;99.90;;;;;;4962378;28;90483;-29
2022/11/07 05:23:14;;;;;;;11.77;6.57;;;11.00;99.90;;;;;;4961432;28;89211;-32
2022/11/07 05:25:50;;;;;;;17.92;7.18;;;11.10;99.90;;;;;;4962209;28;89018;-32
2022/11/07 05:28:20;;;;;;;11.18;6.15;;;11.10;99.90;;;;;;4962110;28;91003;-32
2022/11/07 05:30:46;;;;;;;16.40;6.28;;;11.00;99.90;;;;;;4960210;28;90243;-30
2022/11/07 05:33:13;;;;;;;14.18;6.68;;;11.10;99.90;;;;;;4962117;28;89334;-30
2022/11/07 05:35:39;;;;;;;8.95;5.95;;;11.00;99.90;;;;;;4962989;28;90114;-29
2022/11/07 05:38:05;;;;;;;14.80;6.38;;;11.10;99.90;;;;;;4961648;28;90373;-28
2022/11/07 05:40:32;;;;;;;11.32;7.25;;;11.00;99.90;;;;;;4961914;28;89262;-31
2022/11/07 05:43:03;;;;;;;7.82;6.32;;;11.00;99.90;;;;;;4962137;28;89112;-28
2022/11/07 05:45:30;;;;;;;9.73;7.20;;;11.10;99.90;;;;;;4962476;28;88889;-31
2022/11/07 05:47:59;;;;;;;13.40;7.13;;;11.10;99.90;;;;;;4961347;28;89791;-31
2022/11/07 05:50:26;;;;;;;14.77;7.18;;;11.10;99.90;;;;;;4961801;28;90959;-29
2022/11/07 05:52:52;;;;;;;15.45;6.72;;;11.10;99.90;;;;;;4961305;28;90096;-30
2022/11/07 05:55:18;;;;;;;9.77;7.03;;;11.10;99.90;;;;;;4961764;28;88087;-30
2022/11/07 05:57:44;;;;;;;7.07;6.18;;;11.10;99.90;;;;;;4961269;28;90035;-29
2022/11/07 06:00:11;;;;;;;14.27;6.88;;;11.00;99.90;;;;;;4961956;28;90293;-32
2022/11/07 06:02:36;;;;;;;8.38;5.25;;;11.00;99.90;;;;;;4961673;28;89816;-29
2022/11/07 06:05:02;;;;;;;11.60;6.95;;;11.00;99.90;;;;;;4960863;28;90228;-30
2022/11/07 06:07:27;;;;;;;11.50;6.45;;;11.00;99.90;;;;;;4961190;28;90871;-28
2022/11/07 06:09:53;;;;;;;9.63;5.90;;;11.00;99.90;;;;;;4960207;28;89680;-29
2022/11/07 06:12:19;;;;;;;7.63;6.38;;;11.00;99.90;;;;;;4961517;28;89281;-29
2022/11/07 06:14:44;;;;;;;6.88;5.70;;;11.00;99.90;;;;;;4961937;28;89890;-30
2022/11/07 06:17:10;;;;;;;11.38;6.05;;;11.00;99.90;;;;;;4960681;28;90145;-30
2022/11/07 06:19:35;;;;;;;13.77;7.15;;;11.10;99.90;;;;;;4961075;28;89642;-30
2022/11/07 06:22:01;;;;;;;19.88;7.47;;;11.10;99.90;;;;;;4960842;28;89114;-29
2022/11/07 06:24:27;;;;;;;13.50;7.47;;;11.00;99.90;;;;;;4961400;28;89243;-28
2022/11/07 06:26:52;;;;;;;10.80;6.43;;;11.00;99.90;;;;;;4960668;28;89170;-28
2022/11/07 06:29:18;;;;;;;9.10;6.57;;;11.10;99.90;;;;;;4961037;28;90941;-32
2022/11/07 06:31:44;;;;;;;15.40;7.57;;;11.10;99.90;;;;;;4960810;28;90367;-28
2022/11/07 06:34:09;;;;;;;12.63;7.68;;;11.10;99.90;;;;;;4960697;28;88171;-32
2022/11/07 06:36:35;;;;;;;10.88;6.82;;;11.10;99.90;;;;;;4960112;28;90075;-31
2022/11/07 06:39:01;;;;;;;12.30;7.20;;;11.10;99.90;;;;;;4960103;28;89586;-28
2022/11/07 06:41:26;;;;;;;9.43;5.63;;;11.20;99.90;;;;;;4960743;28;90012;-29
2022/11/07 06:43:52;;;;;;;14.38;7.18;;;11.30;99.90;;;;;;4959965;28;89332;-28
2022/11/07 06:46:18;;;;;;;12.90;7.47;;;11.20;99.90;;;;;;4960704;28;90404;-30
2022/11/07 06:48:45;;;;;;;18.60;7.45;;;11.20;99.90;;;;;;4960900;28;90388;-28
2022/11/07 06:51:11;;;;;;;9.73;6.53;;;11.10;99.90;;;;;;4959569;28;89653;-29
2022/11/07 06:53:37;;;;;;;13.68;6.95;;;11.10;99.90;;;;;;4960115;28;90019;-29
2022/11/07 06:56:05;;;;;;;14.98;8.48;;;11.10;99.90;;;;;;4959142;28;91019;-29
2022/11/07 06:58:30;;;;;;;11.23;7.07;;;11.10;99.90;;;;;;4948897;28;89302;-30
2022/11/07 07:01:07;;;;;;;12.30;7.63;;;11.20;99.90;;;;;;4959801;28;90728;-31
2022/11/07 07:03:32;;;;;;;8.30;7.00;;;11.10;99.90;;;;;;4960690;28;90055;-30
2022/11/07 07:06:04;;;;;;;16.00;7.63;;;11.10;99.90;;;;;;4958993;28;90335;-27
2022/11/07 07:08:30;;;;;;;16.52;7.25;;;11.20;99.90;;;;;;4959794;28;91400;-29
2022/11/07 07:10:56;;;;;;;18.10;8.13;;;11.20;99.90;;;;;;4960491;28;89495;-31
2022/11/07 07:13:21;;;;;;;12.45;6.63;;;11.20;99.90;;;;;;4960757;28;89548;-28
2022/11/07 07:15:54;;;;;;;14.63;7.78;;;11.20;99.90;;;;;;4959275;28;90703;-29
2022/11/07 07:18:20;;;;;;;18.35;8.43;;;11.20;99.90;;;;;;4957693;28;90692;-31
2022/11/07 07:20:47;;;;;;;17.63;7.40;;;11.20;99.90;;;;;;4959626;28;90563;-28
2022/11/07 07:23:13;;;;;;;14.20;8.07;;;11.20;99.90;;;;;;4960967;28;89650;-30
2022/11/07 07:25:39;;;;;;;15.80;7.13;;;11.30;99.90;;;;;;4960132;28;89993;-30
2022/11/07 07:28:04;;;;;;;11.35;6.80;;;11.30;99.90;;;;;;4959448;28;90198;-30
2022/11/07 07:30:30;;;;;;;11.68;6.95;;;11.40;99.90;;;;;;4960128;28;88680;-30
2022/11/07 07:32:55;;;;;;;12.50;6.88;;;11.40;99.90;;;;;;4960022;28;88425;-27
2022/11/07 07:35:21;;;;;;;11.75;6.55;;;11.40;99.90;;;;;;4959994;28;90171;-30
2022/11/07 07:37:53;;;;;;;13.52;6.78;;;11.50;99.90;;;;;;4959089;28;89635;-30
2022/11/07 07:40:20;;;;;;;13.82;6.68;;;11.50;99.90;;;;;;4959492;28;89510;-31
2022/11/07 07:42:46;;;;;;;21.73;7.90;;;11.50;99.90;;;;;;4959673;28;90121;-27
2022/11/07 07:45:13;;;;;;;11.48;6.88;;;11.50;99.90;;;;;;4959596;28;90461;-27
2022/11/07 07:47:39;;;;;;;15.38;7.07;;;11.60;99.90;;;;;;4960132;28;89848;-29
2022/11/07 07:50:07;;;;;;;14.93;6.43;;;11.60;99.90;;;;;;4959231;28;89493;-30
2022/11/07 07:52:33;;;;;;;15.70;7.45;;;11.70;99.90;;;;;;4957860;28;89095;-29
2022/11/07 07:54:59;;;;;;;13.02;7.05;;;11.70;99.90;;;;;;4959311;28;90051;-32
2022/11/07 07:57:24;;;;;;;16.45;6.18;;;11.70;99.90;;;;;;4959515;28;89681;-30
2022/11/07 07:59:50;;;;;;;11.68;6.43;;;11.70;99.90;;;;;;4959373;28;89496;-28
2022/11/07 08:02:15;;;;;;;12.95;6.80;;;11.70;99.90;;;;;;4958496;28;89001;-30
2022/11/07 08:04:41;;;;;;;13.82;6.70;;;11.80;99.90;;;;;;4959192;28;89790;-31
2022/11/07 08:07:07;;;;;;;11.55;6.15;;;11.80;99.90;;;;;;4959322;28;90360;-30
2022/11/07 08:09:36;;;;;;;13.48;6.53;;;11.80;99.90;;;;;;4958820;28;90826;-29
2022/11/07 08:12:07;;;;;;;12.65;6.07;;;11.80;99.90;;;;;;4957771;28;89995;-33
2022/11/07 08:14:33;;;;;;;10.90;5.95;;;11.80;99.90;;;;;;4957064;28;89922;-31
2022/11/07 08:16:59;;;;;;;11.80;5.63;;;11.80;99.90;;;;;;4959563;28;89410;-28
2022/11/07 08:19:25;;;;;;;13.95;6.35;;;11.80;99.90;;;;;;4957873;28;89694;-29
2022/11/07 08:21:51;;;;;;;16.00;5.85;;;11.90;99.90;;;;;;4958793;28;89199;-28
2022/11/07 08:24:17;;;;;;;19.77;6.25;;;11.90;99.90;;;;;;4959457;28;90405;-31
2022/11/07 08:26:43;;;;;;;16.30;5.65;;;12.00;99.90;;;;;;4958408;28;89093;-29
2022/11/07 08:29:08;;;;;;;14.63;6.53;;;12.10;99.90;;;;;;4959643;28;89324;-28
2022/11/07 08:31:34;;;;;;;14.02;6.03;;;12.00;99.90;;;;;;4959016;28;90492;-29
2022/11/07 08:34:00;;;;;;;12.88;6.65;;;12.00;99.90;;;;;;4958802;28;90172;-32
2022/11/07 08:36:26;;;;;;;16.45;7.13;;;12.00;99.90;;;;;;4959190;28;89643;-29
2022/11/07 08:38:52;;;;;;;9.60;6.13;;;12.00;99.90;;;;;;4958543;28;89561;-30
2022/11/07 08:41:18;;;;;;;10.02;6.05;;;12.00;99.90;;;;;;4958922;28;88148;-30
2022/11/07 08:43:44;;;;;;;9.90;5.78;;;12.00;99.90;;;;;;4958999;28;91423;-30
2022/11/07 08:46:10;;;;;;;18.10;6.43;;;12.10;99.90;;;;;;4958901;28;89239;-29
2022/11/07 08:48:36;;;;;;;11.02;6.63;;;12.20;99.90;;;;;;4959313;28;89589;-30
2022/11/07 08:51:01;;;;;;;15.00;6.72;;;12.20;99.90;;;;;;4958380;28;89842;-29
2022/11/07 08:53:28;;;;;;;16.15;5.07;;;12.30;99.90;;;;;;4959395;28;90153;-32
2022/11/07 08:56:08;;;;;;;12.82;6.60;;;12.30;99.90;;;;;;4958234;28;92052;-27
2022/11/07 08:58:35;;;;;;;12.70;6.03;;;12.30;99.90;;;;;;4959473;28;90043;-30
2022/11/07 09:01:05;;;;;;;16.33;6.43;;;12.40;99.90;;;;;;4958576;28;88318;-30
2022/11/07 09:03:32;;;;;;;15.85;6.43;;;12.30;99.90;;;;;;4958996;28;90585;-31
2022/11/07 09:05:58;;;;;;;21.55;5.72;;;12.40;99.90;;;;;;4957902;28;89744;-27
2022/11/07 09:08:24;;;;;;;9.68;4.95;;;12.40;99.90;;;;;;4959263;28;90047;-29
2022/11/07 09:10:49;;;;;;;19.65;6.15;;;12.40;99.90;;;;;;4958947;28;88865;-31
2022/11/07 09:13:15;;;;;;;12.82;5.57;;;12.40;99.90;;;;;;4960286;28;90163;-29
2022/11/07 09:15:41;;;;;;;9.30;5.35;;;12.40;99.90;;;;;;4962057;28;89812;-30
2022/11/07 09:18:07;;;;;;;15.43;5.85;;;12.40;99.90;;;;;;4961284;28;89627;-31
2022/11/07 09:20:33;;;;;;;11.40;6.35;;;12.50;99.90;;;;;;4962286;28;88898;-30
2022/11/07 09:22:59;;;;;;;10.93;5.65;;;12.50;99.90;;;;;;4961369;28;90213;-27
2022/11/07 09:25:25;;;;;;;14.45;6.45;;;12.60;99.90;;;;;;4962198;28;89230;-28
2022/11/07 09:27:51;;;;;;;10.00;5.20;;;12.40;99.90;;;;;;4962154;28;89863;-30
2022/11/07 09:30:21;;;;;;;11.10;5.20;;;12.50;99.90;;;;;;4961628;28;89038;-30
2022/11/07 09:32:46;;;;;;;11.60;5.72;;;12.50;99.90;;;;;;4961837;28;90123;-28
2022/11/07 09:35:13;;;;;;;12.60;5.40;;;12.50;99.90;;;;;;4962018;28;90003;-29
2022/11/07 09:37:40;;;;;;;9.93;5.38;;;12.50;99.90;;;;;;4962775;28;89292;-29
2022/11/07 09:40:23;;;;;;;15.65;6.50;;;12.60;99.90;;;;;;4961740;28;88729;-28
2022/11/07 09:43:12;;;;;;;9.25;5.15;;;12.60;99.90;;;;;;4962151;28;90842;-30
2022/11/07 09:45:50;;;;;;;8.77;4.93;;;12.60;99.90;;;;;;4962013;28;89403;-31
2022/11/07 09:48:22;;;;;;;13.77;5.78;;;12.50;99.90;;;;;;4962486;28;90024;-29
2022/11/07 09:50:48;;;;;;;7.85;4.68;;;12.60;99.90;;;;;;4962030;28;87804;-29
2022/11/07 09:53:28;;;;;;;12.45;5.30;;;12.60;99.90;;;;;;4961525;28;90343;-30
2022/11/07 09:55:58;;;;;;;14.73;6.82;;;12.60;99.90;;;;;;4948344;28;88652;-27
2022/11/07 09:58:44;;;;;;;13.25;5.03;;;12.70;99.90;;;;;;4961889;28;89361;-31
2022/11/07 10:01:15;;;;;;;11.85;4.93;;;12.70;99.90;;;;;;4950342;28;87912;-26
2022/11/07 10:03:42;;;;;;;11.73;4.82;;;12.80;99.90;;;;;;4961543;28;91648;-27
2022/11/07 10:06:23;;;;;;;10.68;4.88;;;12.80;99.90;;;;;;4960948;28;89173;-27
2022/11/07 10:09:13;;;;;;;6.60;3.92;;;13.00;99.90;;;;;;4961461;28;89422;-28
2022/11/07 10:12:08;;;;;;;19.77;5.38;;;13.10;99.90;;;;;;4960637;28;90586;-28
2022/11/07 10:15:09;;;;;;;14.15;5.00;;;13.00;99.90;;;;;;4961369;28;90184;-30
2022/11/07 10:18:11;;;;;;;13.13;5.68;;;13.00;99.90;;;;;;4961223;28;89647;-29
2022/11/07 10:20:56;;;;;;;13.85;5.80;;;13.00;99.90;;;;;;4955136;28;88622;-28
2022/11/07 10:23:47;;;;;;;13.30;5.88;;;12.90;99.90;;;;;;4961669;28;88127;-28
2022/11/07 10:26:17;;;;;;;11.10;5.80;;;12.90;99.90;;;;;;4960326;28;90316;-29
2022/11/07 10:28:44;;;;;;;15.70;6.82;;;12.80;99.90;;;;;;4960749;28;89532;-27
2022/11/07 10:31:13;;;;;;;11.70;6.05;;;12.80;99.90;;;;;;4960771;28;89491;-32
2022/11/07 10:33:43;;;;;;;16.85;6.20;;;12.80;99.90;;;;;;4961413;28;89762;-30
2022/11/07 10:36:23;;;;;;;12.23;5.13;;;12.80;99.90;;;;;;4960679;28;90441;-30
2022/11/07 10:38:50;;;;;;;11.45;4.63;;;12.90;99.90;;;;;;4947032;28;90416;-31
2022/11/07 10:41:21;;;;;;;11.23;5.25;;;12.90;99.90;;;;;;4960430;28;90093;-30
2022/11/07 10:44:06;;;;;;;18.65;5.78;;;13.00;99.90;;;;;;4960669;28;89640;-27
2022/11/07 10:46:37;;;;;;;12.63;5.40;;;13.10;99.90;;;;;;4961167;28;92324;-30
2022/11/07 10:49:15;;;;;;;8.85;4.60;;;13.20;99.90;;;;;;4948088;28;89916;-28
2022/11/07 10:51:41;;;;;;;;;;;13.30;99.90;;;;;;4961561;28;89303;-32
2022/11/07 10:54:27;;;;;;;8.00;5.03;;;13.30;99.90;;;;;;4961678;28;89851;-29
2022/11/07 10:57:10;;;;;;;7.55;5.47;;;13.40;99.90;;;;;;4960658;28;90204;-31
2022/11/07 10:59:56;;;;;;;7.00;5.25;;;13.50;99.90;;;;;;4960122;28;87811;-29
2022/11/07 11:02:24;;;;;;;9.77;5.05;;;13.60;99.90;;;;;;4960232;28;90318;-29
2022/11/07 11:04:53;;;;;;;12.40;4.75;;;13.70;99.90;;;;;;4959791;28;90041;-29
2022/11/07 11:07:20;;;;;;;13.93;6.45;;;13.70;99.90;;;;;;4960275;28;89557;-28
2022/11/07 11:09:54;;;;;;;5.45;3.90;;;13.80;99.90;;;;;;4960338;28;89396;-28
2022/11/07 11:12:25;;;;;;;10.88;5.40;;;13.70;99.90;;;;;;4959914;28;89743;-32
2022/11/07 11:15:20;;;;;;;9.13;4.70;;;13.80;99.90;;;;;;4960293;28;88959;-30
2022/11/07 11:17:55;;;;;;;13.02;5.20;;;13.80;99.90;;;;;;4959418;28;89362;-29
2022/11/07 11:20:32;;;;;;;5.63;4.05;;;13.80;99.90;;;;;;4960079;28;90842;-28
2022/11/07 11:23:00;;;;;;;10.65;5.78;;;13.80;99.90;;;;;;4959983;28;89458;-29
2022/11/07 11:25:26;;;;;;;11.80;4.70;;;13.80;99.90;;;;;;4960141;28;87907;-28
2022/11/07 11:28:01;;;;;;;11.77;5.93;;;13.80;99.90;;;;;;4959470;28;90470;-28
2022/11/07 11:30:29;;;;;;;8.75;4.95;;;13.90;99.90;;;;;;4959465;28;90786;-29
2022/11/07 11:33:25;;;;;;;11.32;5.57;;;13.80;99.90;;;;;;4958876;28;90494;-29
2022/11/07 11:36:22;;;;;;;9.23;5.53;;;13.80;99.90;;;;;;4949866;28;89208;-29
2022/11/07 11:38:54;;;;;;;14.30;5.32;;;13.80;99.90;;;;;;4959331;28;89276;-31
2022/11/07 11:41:35;;;;;;;11.45;4.82;;;13.90;99.90;;;;;;4959358;28;89669;-32
2022/11/07 11:44:17;;;;;;;15.32;5.68;;;14.00;99.90;;;;;;4946332;28;89960;-27
2022/11/07 11:46:58;;;;;;;10.45;5.60;;;14.00;99.90;;;;;;4960055;28;89497;-29
2022/11/07 11:49:42;;;;;;;12.32;5.45;;;14.10;99.90;;;;;;4960757;28;90513;-33
2022/11/07 11:52:34;;;;;;;15.27;5.80;;;14.10;99.90;;;;;;4959369;28;89562;-30
2022/11/07 11:55:01;;;;;;;8.43;5.03;;;14.10;99.90;;;;;;4958658;28;90027;-29
2022/11/07 11:57:44;;;;;;;8.75;5.28;;;14.10;99.90;;;;;;4959659;28;90101;-29
2022/11/07 12:00:14;;;;;;;8.15;4.20;;;14.10;99.90;;;;;;4959558;28;90644;-29
2022/11/07 12:02:58;;;;;;;9.00;5.05;;;14.10;99.90;;;;;;4959124;28;89556;-32
2022/11/07 12:05:58;;;;;;;10.75;5.20;;;14.10;99.90;;;;;;4959398;28;90430;-29
2022/11/07 12:08:35;;;;;;;4.63;3.88;;;14.10;99.90;;;;;;4960230;28;89566;-27
2022/11/07 12:11:32;;;;;;;5.90;4.18;;;14.00;99.90;;;;;;4960275;28;89473;-27
2022/11/07 12:14:17;;;;;;;10.05;5.07;;;14.10;99.90;;;;;;4958969;28;89720;-28
2022/11/07 12:16:53;;;;;;;10.48;5.57;;;14.10;99.90;;;;;;4947427;28;89520;-27
2022/11/07 12:19:27;;;;;;;8.90;4.78;;;14.10;99.90;;;;;;4957192;28;89502;-31
2022/11/07 12:22:10;;;;;;;7.18;4.45;;;14.20;99.90;;;;;;4959040;28;90422;-29
2022/11/07 12:25:06;;;;;;;7.47;4.55;;;14.10;99.90;;;;;;4958799;28;90391;-32
2022/11/07 12:27:53;;;;;;;7.75;4.78;;;14.10;99.90;;;;;;4958963;28;90723;-28
2022/11/07 12:30:46;;;;;;;6.65;4.35;;;14.10;99.90;;;;;;4955148;28;88306;-30
2022/11/07 12:33:42;;;;;;;13.10;4.97;;;14.20;99.90;;;;;;4954679;28;90052;-32
2022/11/07 12:36:22;;;;;;;8.45;5.40;;;14.20;99.90;;;;;;4959109;28;89520;-29
2022/11/07 12:39:08;;;;;;;6.90;4.45;;;14.20;99.90;;;;;;4958885;28;89659;-28
2022/11/07 12:41:37;;;;;;;6.18;4.78;;;14.30;99.90;;;;;;4959065;28;88032;-29
2022/11/07 14:40:26;;;;;;;10.25;6.05;;;13.90;99.90;;;;;;4859310;23;88876;-30
2022/11/07 14:42:52;;;;;;;11.23;5.97;;;14.00;99.90;;;;;;4926182;28;88610;-29
2022/11/07 14:45:21;;;;;;;14.80;6.13;;;13.90;99.90;;;;;;4921117;28;90066;-29
2022/11/07 14:47:47;;;;;;;;;;;13.90;99.90;;;;;;4916150;28;89705;-32
2022/11/07 14:50:20;;;;;;;10.23;5.80;;;14.00;99.90;;;;;;4923088;28;88709;-28
2022/11/07 14:52:52;;;;;;;7.55;5.15;;;13.90;99.90;;;;;;4921811;28;89037;-28
2022/11/07 14:55:31;;;;;;;13.10;6.07;;;14.00;99.90;;;;;;4921728;28;90208;-27
2022/11/07 14:58:03;;;;;;;9.48;5.90;;;13.90;99.90;;;;;;4921024;28;89981;-32
2022/11/07 15:00:29;;;;;;;7.75;5.50;;;13.90;99.90;;;;;;4921732;28;89769;-28
2022/11/07 15:02:57;;;;;;;14.90;6.25;;;13.90;99.90;;;;;;4921685;28;87956;-28